createdAt,value
2022-07-25T00:03:35.405Z,61.1
2022-07-25T00:09:24.607Z,61
2022-07-25T00:15:01.556Z,60.9
2022-07-25T00:20:40.798Z,60.9
2022-07-25T00:26:16.490Z,60.9
2022-07-25T00:31:59.762Z,60.8
2022-07-25T00:37:36.529Z,60.8
2022-07-25T00:43:16.330Z,60.8
2022-07-25T00:48:44.200Z,60.7
2022-07-25T00:54:07.553Z,60.6
2022-07-25T00:59:45.551Z,60.6
2022-07-25T01:05:27.384Z,60.6
2022-07-25T01:11:04.958Z,60.5
2022-07-25T01:16:29.084Z,60.4
2022-07-25T01:21:50.404Z,60.4
2022-07-25T01:27:17.310Z,60.4
2022-07-25T01:33:06.629Z,60.3
2022-07-25T01:38:34.895Z,60.3
2022-07-25T01:44:14.455Z,60.3
2022-07-25T01:49:52.531Z,60.2
2022-07-25T01:55:39.018Z,60.2
2022-07-25T02:01:35.844Z,60.1
2022-07-25T02:07:12.581Z,60.1
2022-07-25T02:12:50.672Z,60
2022-07-25T02:18:30.976Z,59.9
2022-07-25T02:24:08.046Z,59.9
2022-07-25T02:29:44.970Z,59.9
2022-07-25T02:35:29.576Z,59.8
2022-07-25T02:41:06.603Z,59.8
2022-07-25T02:46:44.471Z,59.8
2022-07-25T02:52:22.591Z,59.7
2022-07-25T02:58:34.444Z,59.6
2022-07-25T03:04:12.587Z,59.6
2022-07-25T03:09:36.249Z,59.6
2022-07-25T03:15:15.817Z,59.5
2022-07-25T03:20:52.738Z,59.5
2022-07-25T03:26:44.885Z,59.4
2022-07-25T03:32:21.301Z,59.4
2022-07-25T03:37:57.002Z,59.3
2022-07-25T03:43:41.598Z,59.3
2022-07-25T03:54:23.740Z,59.1
2022-07-25T04:00:07.561Z,59.1
2022-07-25T04:05:47.663Z,59.1
2022-07-25T04:11:25.929Z,59
2022-07-25T04:17:13.485Z,58.9
2022-07-25T04:23:03.638Z,58.9
2022-07-25T04:28:40.904Z,58.9
2022-07-25T04:34:09.745Z,58.8
2022-07-25T04:39:51.521Z,58.8
2022-07-25T04:45:30.024Z,58.8
2022-07-25T04:50:57.516Z,58.7
2022-07-25T04:56:34.291Z,58.7
2022-07-25T05:13:06.039Z,58.5
2022-07-25T05:18:43.892Z,58.5
2022-07-25T05:24:29.556Z,58.4
2022-07-25T05:29:51.907Z,58.4
2022-07-25T05:35:14.818Z,58.4
2022-07-25T05:40:39.798Z,58.3
2022-07-25T05:46:17.370Z,58.3
2022-07-25T05:51:55.137Z,58.2
2022-07-25T05:57:34.809Z,58.2
2022-07-25T06:03:18.909Z,58.1
2022-07-25T06:08:58.819Z,58.1
2022-07-25T06:14:52.132Z,58
2022-07-25T06:20:40.378Z,58
2022-07-25T06:26:23.185Z,57.9
2022-07-25T06:32:20.959Z,57.9
2022-07-25T06:37:57.971Z,57.8
2022-07-25T06:43:40.003Z,57.8
2022-07-25T06:54:42.430Z,57.7
2022-07-25T07:00:23.857Z,57.6
2022-07-25T07:06:07.859Z,57.6
2022-07-25T07:11:46.203Z,57.6
2022-07-25T07:17:29.245Z,57.5
2022-07-25T07:23:14.918Z,57.5
2022-07-25T07:29:20.984Z,57.4
2022-07-25T07:35:37.587Z,57.4
2022-07-25T07:41:24.226Z,57.3
2022-07-25T07:47:01.845Z,57.3
2022-07-25T07:52:12.690Z,57.3
2022-07-25T07:57:50.302Z,57.2
2022-07-25T08:03:27.490Z,57.2
2022-07-25T15:19:16.954Z,65.8
2022-07-25T15:26:00.953Z,65.8
2022-07-25T15:31:43.225Z,65.7
2022-07-25T15:37:07.381Z,65.6
2022-07-25T15:42:47.677Z,65.6
2022-07-25T15:48:58.331Z,65.6
2022-07-25T15:54:41.713Z,65.5
2022-07-25T16:00:05.586Z,65.4
2022-07-25T16:05:51.260Z,65.4
2022-07-25T16:11:31.823Z,65.4
2022-07-25T16:17:15.351Z,65.3
2022-07-25T16:22:55.005Z,65.3
2022-07-25T16:28:36.593Z,65.2
2022-07-25T16:34:23.600Z,65.2
2022-07-25T16:40:06.221Z,65.1
2022-07-25T16:45:50.371Z,65.1
2022-07-25T16:51:37.090Z,65.1
2022-07-25T16:57:25.962Z,65
2022-07-25T17:03:07.513Z,64.9
2022-07-25T17:08:49.938Z,64.9
2022-07-25T17:14:31.106Z,64.8
2022-07-25T17:20:16.440Z,64.8
2022-07-25T17:25:55.958Z,64.8
2022-07-25T17:31:37.435Z,64.7
2022-07-25T17:37:20.758Z,64.7
2022-07-25T17:42:53.205Z,64.6
2022-07-25T17:48:33.414Z,64.6
2022-07-25T17:54:15.569Z,64.5
2022-07-25T17:59:57.199Z,64.5
2022-07-25T18:05:44.385Z,64.4
2022-07-25T18:11:22.930Z,64.4
2022-07-25T18:17:03.849Z,64.3
2022-07-25T18:22:44.041Z,64.3
2022-07-25T18:28:28.316Z,64.3
2022-07-25T18:34:12.405Z,64.2
2022-07-25T18:39:52.141Z,64.2
2022-07-25T18:46:10.410Z,64.1
2022-07-25T18:51:56.339Z,64.1
2022-07-25T18:57:37.153Z,64
2022-07-25T19:03:17.451Z,64
2022-07-25T19:08:57.835Z,63.9
2022-07-25T19:15:09.420Z,63.9
2022-07-25T19:20:50.318Z,63.8
2022-07-25T19:26:31.070Z,63.8
